createdAt,value
2022-12-24T00:00:03.897Z,100638.03
2022-12-24T00:02:30.524Z,100647.75
2022-12-24T00:05:00.779Z,100640.09
2022-12-24T00:07:28.327Z,100645.38
2022-12-24T00:09:54.834Z,100652.22
2022-12-24T00:12:21.350Z,100650.41
2022-12-24T00:14:47.866Z,100661.97
2022-12-24T00:17:14.470Z,100666.44
2022-12-24T00:19:41.018Z,100670.91
2022-12-24T00:22:07.484Z,100667.22
2022-12-24T00:24:33.912Z,100666.44
2022-12-24T00:27:00.660Z,100673.31
2022-12-24T00:29:27.268Z,100670.13
2022-12-24T00:31:53.711Z,100677.47
2022-12-24T00:34:20.525Z,100677.47
2022-12-24T00:36:47.058Z,100689.28
2022-12-24T00:39:13.523Z,100687.91
2022-12-24T00:41:40.006Z,100693.44
2022-12-24T00:44:11.800Z,100691.81
2022-12-24T00:46:40.913Z,100707.63
2022-12-24T00:49:08.492Z,100697.34
2022-12-24T00:51:36.273Z,100708.91
2022-12-24T00:54:03.682Z,100713.59
2022-12-24T00:56:30.230Z,100722.53
2022-12-24T00:58:57.059Z,100729.63
2022-12-24T01:01:24.756Z,100728.03
2022-12-24T01:03:51.936Z,100728.84
2022-12-24T01:06:21.379Z,100736.16
2022-12-24T01:08:51.817Z,100739.84
2022-12-24T01:11:18.853Z,100750.59
2022-12-24T01:13:45.338Z,100754.50
2022-12-24T01:16:17.727Z,100763.34
2022-12-24T01:18:44.549Z,100767.97
2022-12-24T01:21:11.135Z,100772.31
2022-12-24T01:23:37.952Z,100777.25
2022-12-24T01:26:05.746Z,100772.94
2022-12-24T01:28:33.923Z,100782.88
2022-12-24T01:31:00.559Z,100789.19
2022-12-24T01:33:30.398Z,100788.59
2022-12-24T01:35:56.971Z,100785.88
2022-12-24T01:38:23.487Z,100791.03
2022-12-24T01:41:08.596Z,100788.78
2022-12-24T01:43:35.215Z,100789.03
2022-12-24T01:46:04.809Z,100787.78
2022-12-24T01:48:45.290Z,100788.47
2022-12-24T01:51:22.267Z,100802.75
2022-12-24T01:53:54.837Z,100797.81
2022-12-24T01:56:22.137Z,100808.22
2022-12-24T01:58:55.188Z,100811.19
2022-12-24T02:01:21.947Z,100819.53
2022-12-24T02:03:49.098Z,100822.59
2022-12-24T02:06:17.153Z,100832.00
2022-12-24T02:08:44.503Z,100827.84
2022-12-24T02:11:16.451Z,100826.72
2022-12-24T02:13:47.645Z,100835.25
2022-12-24T02:16:41.593Z,100836.16
2022-12-24T02:19:29.293Z,100847.34
2022-12-24T02:22:12.975Z,100849.06
2022-12-24T02:25:10.330Z,100850.97
2022-12-24T02:27:48.824Z,100852.00
2022-12-24T02:30:20.865Z,100858.50
2022-12-24T02:32:53.384Z,100857.91
2022-12-24T02:35:41.093Z,100861.41
2022-12-24T02:38:29.136Z,100862.88
2022-12-24T02:41:02.370Z,100866.97
2022-12-24T02:43:42.358Z,100868.22
2022-12-24T02:46:13.886Z,100865.81
2022-12-24T02:48:43.149Z,100860.78
2022-12-24T02:51:11.077Z,100865.69
2022-12-24T02:53:38.278Z,100870.59
2022-12-24T02:56:35.675Z,100875.84
2022-12-24T02:59:27.573Z,100884.72
2022-12-24T03:02:19.610Z,100886.19
2022-12-24T03:05:07.515Z,100889.25
2022-12-24T03:07:42.109Z,100888.06
2022-12-24T03:10:29.489Z,100892.16
2022-12-24T03:13:01.125Z,100896.25
2022-12-24T03:15:29.805Z,100894.06
2022-12-24T03:17:59.841Z,100887.19
2022-12-24T03:20:33.746Z,100889.38
2022-12-24T03:23:00.533Z,100884.13
2022-12-24T03:25:28.066Z,100890.78
2022-12-24T03:27:57.267Z,100898.88
2022-12-24T03:30:24.532Z,100905.50
2022-12-24T03:32:51.343Z,100900.03
2022-12-24T03:35:17.982Z,100900.63
2022-12-24T03:37:45.280Z,100910.69
2022-12-24T03:40:12.170Z,100902.94
2022-12-24T03:42:38.699Z,100912.22
2022-12-24T03:45:05.757Z,100907.31
2022-12-24T03:47:32.364Z,100917.81
2022-12-24T03:49:58.867Z,100911.56
2022-12-24T03:52:25.354Z,100909.19
2022-12-24T03:54:51.952Z,100906.25
2022-12-24T03:57:18.435Z,100913.84
2022-12-24T03:59:44.899Z,100916.59
2022-12-24T04:02:11.538Z,100917.88
2022-12-24T04:04:38.283Z,100908.09
2022-12-24T04:07:05.742Z,100926.03
2022-12-24T04:09:32.987Z,100935.88
2022-12-24T04:11:59.496Z,100925.50
2022-12-24T04:14:26.120Z,100928.03
2022-12-24T04:16:52.599Z,100923.38
2022-12-24T04:19:19.122Z,100926.56
2022-12-24T04:21:45.635Z,100926.66
2022-12-24T04:24:12.299Z,100927.25
2022-12-24T04:26:38.864Z,100931.25
2022-12-24T04:29:05.580Z,100934.25
2022-12-24T04:31:32.176Z,100940.06
2022-12-24T04:33:58.643Z,100946.50
2022-12-24T04:36:25.129Z,100937.56
2022-12-24T04:38:51.807Z,100939.19
2022-12-24T04:41:23.660Z,100947.88
2022-12-24T04:43:51.198Z,100952.31
2022-12-24T04:46:20.497Z,100957.34
2022-12-24T04:48:49.083Z,100954.72
2022-12-24T04:51:16.911Z,100946.84
2022-12-24T04:53:45.001Z,100947.06
2022-12-24T04:56:20.429Z,100951.28
2022-12-24T04:58:47.342Z,100951.28
2022-12-24T05:01:17.344Z,100967.06
2022-12-24T05:03:44.329Z,100967.06
2022-12-24T05:06:13.454Z,100963.19
2022-12-24T05:08:40.217Z,100961.72
2022-12-24T05:11:07.575Z,100963.09
2022-12-24T05:13:40.768Z,100964.47
2022-12-24T05:16:13.430Z,100956.13
2022-12-24T05:18:40.230Z,100951.47
2022-12-24T05:21:25.404Z,100957.53
2022-12-24T05:24:11.379Z,100956.72
2022-12-24T05:26:43.609Z,100964.59
2022-12-24T05:29:14.419Z,100965.97
2022-12-24T05:31:41.991Z,100967.59
2022-12-24T05:34:09.723Z,100967.34
2022-12-24T05:36:36.496Z,100965.09
2022-12-24T05:39:03.309Z,100970.91
2022-12-24T05:41:30.127Z,100978.34
2022-12-24T05:43:56.820Z,100979.97
2022-12-24T05:46:24.737Z,100974.47
2022-12-24T05:48:52.749Z,100969.78
2022-12-24T05:51:22.490Z,100973.78
2022-12-24T05:53:50.761Z,100974.59
2022-12-24T05:56:22.014Z,100976.19
2022-12-24T05:58:49.439Z,100981.00
2022-12-24T06:01:16.422Z,100974.72
2022-12-24T06:03:43.306Z,100987.41
2022-12-24T06:06:12.761Z,100986.97
2022-12-24T06:08:41.668Z,100996.69
2022-12-24T06:11:11.992Z,100992.47
2022-12-24T06:13:39.709Z,100980.91
2022-12-24T06:16:07.665Z,100994.28
2022-12-24T06:18:35.800Z,100997.13
2022-12-24T06:21:02.701Z,101004.00
2022-12-24T06:23:31.582Z,101009.59
2022-12-24T06:26:01.030Z,101012.78
2022-12-24T06:28:32.675Z,101003.88
2022-12-24T06:31:03.324Z,101007.31
2022-12-24T06:33:31.576Z,101012.56
2022-12-24T06:35:58.110Z,101023.78
2022-12-24T06:38:24.757Z,101020.09
2022-12-24T06:40:51.283Z,101010.38
2022-12-24T06:43:17.815Z,101016.22
2022-12-24T06:45:46.932Z,101021.47
2022-12-24T06:48:14.556Z,101026.53
2022-12-24T06:50:41.814Z,101026.28
2022-12-24T06:53:08.684Z,101032.13
2022-12-24T06:55:35.291Z,101039.00
2022-12-24T06:58:01.856Z,101031.09
2022-12-24T07:00:28.468Z,101030.06
2022-12-24T07:02:55.109Z,101024.59
2022-12-24T07:05:21.706Z,101033.28
2022-12-24T07:07:48.262Z,101028.25
2022-12-24T07:10:19.970Z,101035.34
2022-12-24T07:12:46.583Z,101039.00
2022-12-24T07:15:13.881Z,101047.91
2022-12-24T07:17:40.888Z,101049.97
2022-12-24T07:20:10.430Z,101046.75
2022-12-24T07:22:36.942Z,101042.75
2022-12-24T07:25:03.538Z,101050.56
2022-12-24T07:27:30.760Z,101060.13
2022-12-24T07:29:57.249Z,101067.44
2022-12-24T07:32:23.848Z,101073.28
2022-12-24T07:34:50.353Z,101084.16
2022-12-24T07:37:16.875Z,101084.53
2022-12-24T07:39:44.019Z,101092.72
2022-12-24T07:42:10.570Z,101099.59
2022-12-24T07:44:37.215Z,101106.81
2022-12-24T07:47:04.056Z,101105.56
2022-12-24T07:49:30.719Z,101113.25
2022-12-24T07:51:57.311Z,101116.69
2022-12-24T07:54:23.821Z,101120.91
2022-12-24T07:56:50.394Z,101128.00
2022-12-24T07:59:16.969Z,101141.72
2022-12-24T08:01:43.720Z,101139.09
2022-12-24T08:04:10.387Z,101149.41
2022-12-24T08:06:36.957Z,101146.56
2022-12-24T08:09:04.309Z,101148.38
2022-12-24T08:11:30.955Z,101154.44
2022-12-24T08:13:57.464Z,101159.72
2022-12-24T08:16:24.148Z,101157.66
2022-12-24T08:18:50.793Z,101168.19
2022-12-24T08:21:17.334Z,101162.91
2022-12-24T08:23:43.911Z,101166.13
2022-12-24T08:26:11.062Z,101183.53
2022-12-24T08:28:38.169Z,101173.81
2022-12-24T08:31:05.802Z,101169.34
2022-12-24T08:33:32.431Z,101181.03
2022-12-24T08:36:01.628Z,101179.06
2022-12-24T08:38:28.115Z,101175.91
2022-12-24T08:40:55.764Z,101180.50
2022-12-24T08:43:22.917Z,101190.56
2022-12-24T08:45:50.098Z,101194.81
2022-12-24T08:48:17.282Z,101201.47
2022-12-24T08:50:44.290Z,101204.91
2022-12-24T08:53:11.064Z,101202.84
2022-12-24T08:55:37.733Z,101207.31
2022-12-24T08:58:04.281Z,101211.31
2022-12-24T09:00:31.047Z,101216.13
2022-12-24T09:02:57.819Z,101218.31
2022-12-24T09:05:25.910Z,101221.53
2022-12-24T09:07:52.756Z,101221.19
2022-12-24T09:10:19.278Z,101224.97
2022-12-24T09:12:45.711Z,101244.78
2022-12-24T09:15:14.312Z,101241.56
2022-12-24T09:17:41.763Z,101246.03
2022-12-24T09:20:09.249Z,101254.16
2022-12-24T09:22:37.238Z,101246.84
2022-12-24T09:25:04.848Z,101249.25
2022-12-24T09:27:32.007Z,101264.59
2022-12-24T09:29:58.528Z,101257.84
2022-12-24T09:32:25.171Z,101262.44
2022-12-24T09:34:51.666Z,101270.94
2022-12-24T09:37:18.441Z,101269.69
2022-12-24T09:39:45.125Z,101281.38
2022-12-24T09:42:37.419Z,101275.97
2022-12-24T09:45:19.201Z,101291.69
2022-12-24T09:48:02.223Z,101302.22
2022-12-24T09:50:53.315Z,101307.38
2022-12-24T09:53:26.079Z,101304.38
2022-12-24T09:55:58.259Z,101305.41
2022-12-24T09:58:45.811Z,101297.19
2022-12-24T10:01:14.555Z,101299.91
2022-12-24T10:03:41.609Z,101303.81
2022-12-24T10:06:16.305Z,101302.91
2022-12-24T10:08:56.397Z,101300.75
2022-12-24T10:11:42.745Z,101305.31
2022-12-24T10:14:20.750Z,101301.88
2022-12-24T10:16:55.166Z,101304.97
2022-12-24T10:19:33.295Z,101313.91
2022-12-24T10:21:59.711Z,101304.91
2022-12-24T10:24:36.081Z,101307.53
2022-12-24T10:27:17.069Z,101311.44
2022-12-24T10:29:51.041Z,101306.03
2022-12-24T10:32:29.779Z,101291.22
2022-12-24T10:35:02.199Z,101300.38
2022-12-24T10:37:30.281Z,101306.91
2022-12-24T10:39:59.236Z,101304.56
2022-12-24T10:42:42.160Z,101307.94
2022-12-24T10:45:24.076Z,101311.84
2022-12-24T10:47:55.423Z,101315.75
2022-12-24T10:50:33.812Z,101317.59
2022-12-24T10:53:25.126Z,101309.66
2022-12-24T10:56:02.053Z,101301.66
2022-12-24T10:58:28.779Z,101309.00
2022-12-24T11:00:55.604Z,101314.50
2022-12-24T11:03:23.999Z,101326.09
2022-12-24T11:06:11.220Z,101331.72
2022-12-24T11:08:41.532Z,101326.78
2022-12-24T11:11:09.816Z,101328.38
2022-12-24T11:13:41.105Z,101320.91
2022-12-24T11:16:17.290Z,101326.88
2022-12-24T11:18:51.318Z,101316.34
2022-12-24T11:21:21.504Z,101315.13
2022-12-24T11:23:54.973Z,101314.78
2022-12-24T11:26:26.984Z,101318.78
2022-12-24T11:29:28.319Z,101322.19
2022-12-24T11:32:18.567Z,101322.31
2022-12-24T11:34:45.262Z,101330.94
2022-12-24T11:37:22.197Z,101326.00
2022-12-24T11:40:00.001Z,101331.97
2022-12-24T11:42:26.537Z,101329.56
2022-12-24T11:44:56.838Z,101332.66
2022-12-24T11:47:42.008Z,101333.66
2022-12-24T11:50:35.826Z,101335.72
2022-12-24T11:53:20.559Z,101335.28
2022-12-24T11:55:56.918Z,101339.06
2022-12-24T11:58:53.905Z,101337.00
2022-12-24T12:01:25.972Z,101345.16
2022-12-24T12:04:00.771Z,101342.59
2022-12-24T12:06:38.009Z,101346.06
2022-12-24T12:09:14.648Z,101341.47
2022-12-24T12:11:44.851Z,101348.91
2022-12-24T12:14:35.268Z,101355.91
2022-12-24T12:17:20.842Z,101352.59
2022-12-24T12:20:16.746Z,101367.28
2022-12-24T12:22:59.880Z,101373.81
2022-12-24T12:25:51.918Z,101378.66
2022-12-24T12:28:46.314Z,101377.28
2022-12-24T12:31:21.472Z,101383.34
2022-12-24T12:33:50.154Z,101389.53
2022-12-24T12:36:21.708Z,101375.78
2022-12-24T12:38:48.967Z,101376.81
2022-12-24T12:41:28.002Z,101379.44
2022-12-24T12:44:25.465Z,101378.19
2022-12-24T12:47:33.576Z,101386.44
2022-12-24T12:50:22.015Z,101393.31
2022-12-24T12:53:35.501Z,101394.56
2022-12-24T12:56:23.986Z,101393.19
2022-12-24T12:59:22.819Z,101399.28
2022-12-24T13:01:58.546Z,101400.53
2022-12-24T13:05:05.586Z,101401.69
2022-12-24T13:07:38.022Z,101404.00
2022-12-24T13:10:23.679Z,101407.53
2022-12-24T13:13:20.255Z,101406.16
2022-12-24T13:16:21.464Z,101409.38
2022-12-24T13:19:02.576Z,101402.38
2022-12-24T13:21:30.720Z,101408.09
2022-12-24T13:24:21.460Z,101406.84
2022-12-24T13:27:07.819Z,101408.47
2022-12-24T13:29:54.106Z,101408.69
2022-12-24T13:32:20.555Z,101419.03
2022-12-24T13:34:50.233Z,101415.69
2022-12-24T13:37:32.729Z,101423.97
2022-12-24T13:40:08.650Z,101432.22
2022-12-24T13:43:01.711Z,101443.09
2022-12-24T13:45:31.536Z,101444.38
2022-12-24T13:48:01.219Z,101446.31
2022-12-24T13:50:38.498Z,101445.50
2022-12-24T13:53:07.489Z,101451.28
2022-12-24T13:55:34.933Z,101447.59
2022-12-24T13:58:05.368Z,101449.53
2022-12-24T14:00:54.528Z,101453.19
2022-12-24T14:03:30.869Z,101450.09
2022-12-24T14:06:02.832Z,101465.38
2022-12-24T14:08:37.712Z,101460.78
2022-12-24T14:11:14.890Z,101460.19
2022-12-24T14:13:41.327Z,101461.81
2022-12-24T14:16:12.275Z,101467.53
2022-12-24T14:18:41.384Z,101470.41
2022-12-24T14:21:16.894Z,101480.72
2022-12-24T14:23:55.237Z,101473.03
2022-12-24T14:26:25.366Z,101473.03
2022-12-24T14:29:02.136Z,101476.81
2022-12-24T14:31:28.733Z,101471.56
2022-12-24T14:34:11.384Z,101478.09
2022-12-24T14:36:39.178Z,101475.91
2022-12-24T14:39:17.006Z,101484.53
2022-12-24T14:41:56.904Z,101479.69
2022-12-24T14:44:35.631Z,101491.28
2022-12-24T14:47:18.664Z,101493.34
2022-12-24T14:50:00.311Z,101492.63
2022-12-24T14:55:35.279Z,101493.81
2022-12-24T14:58:35.998Z,101506.31
2022-12-24T15:01:20.133Z,101509.25
2022-12-24T15:03:59.217Z,101511.59
2022-12-24T15:06:26.112Z,101509.72
2022-12-24T15:08:53.049Z,101514.72
2022-12-24T15:11:22.912Z,101515.44
2022-12-24T15:13:55.473Z,101525.69
2022-12-24T15:16:34.137Z,101526.00
2022-12-24T15:19:04.189Z,101528.91
2022-12-24T15:21:44.064Z,101531.03
2022-12-24T15:24:29.693Z,101526.41
2022-12-24T15:26:56.581Z,101536.78
2022-12-24T15:29:26.077Z,101538.31
2022-12-24T15:31:57.729Z,101542.59
2022-12-24T15:34:44.704Z,101544.28
2022-12-24T15:37:17.213Z,101541.91
2022-12-24T15:39:44.655Z,101540.94
2022-12-24T15:42:18.664Z,101541.78
2022-12-24T15:45:04.986Z,101555.44
2022-12-24T15:47:38.425Z,101553.25
2022-12-24T15:50:37.632Z,101554.91
2022-12-24T15:53:18.544Z,101557.59
2022-12-24T15:56:05.856Z,101574.41
2022-12-24T15:58:44.486Z,101569.78
2022-12-24T16:01:14.315Z,101565.56
2022-12-24T16:03:50.132Z,101573.25
2022-12-24T16:06:17.582Z,101574.31
2022-12-24T16:08:45.446Z,101576.75
2022-12-24T16:11:19.734Z,101568.50
2022-12-24T16:13:49.121Z,101571.75
2022-12-24T16:16:18.996Z,101569.16
2022-12-24T16:18:53.876Z,101565.31
2022-12-24T16:21:28.208Z,101568.56
2022-12-24T16:23:57.335Z,101558.06
2022-12-24T16:26:24.532Z,101566.00
2022-12-24T16:28:51.031Z,101560.97
2022-12-24T16:31:20.216Z,101569.44
2022-12-24T16:33:47.289Z,101571.88
2022-12-24T16:36:14.583Z,101564.00
2022-12-24T16:38:59.696Z,101568.25
2022-12-24T16:41:26.704Z,101576.78
2022-12-24T16:43:53.175Z,101575.75
2022-12-24T16:46:19.956Z,101585.88
2022-12-24T16:48:48.526Z,101583.03
2022-12-24T16:51:15.435Z,101581.22
2022-12-24T16:53:41.979Z,101582.44
2022-12-24T16:56:08.949Z,101585.66
2022-12-24T16:58:35.477Z,101582.41
2022-12-24T17:01:07.238Z,101578.59
2022-12-24T17:03:35.397Z,101581.63
2022-12-24T17:06:07.679Z,101579.63
2022-12-24T17:08:34.338Z,101583.66
2022-12-24T17:11:00.883Z,101589.69
2022-12-24T17:13:27.409Z,101583.22
2022-12-24T17:15:54.027Z,101576.97
2022-12-24T17:18:20.570Z,101585.41
2022-12-24T17:20:57.687Z,101585.03
2022-12-24T17:23:24.206Z,101582.41
2022-12-24T17:25:50.780Z,101584.81
2022-12-24T17:28:17.247Z,101587.22
2022-12-24T17:30:43.791Z,101586.19
2022-12-24T17:33:14.527Z,101584.97
2022-12-24T17:35:42.913Z,101585.34
2022-12-24T17:38:09.603Z,101586.16
2022-12-24T17:40:36.154Z,101575.84
2022-12-24T17:43:02.724Z,101570.19
2022-12-24T17:45:29.167Z,101567.31
2022-12-24T17:47:55.646Z,101566.91
2022-12-24T17:50:22.212Z,101566.69
2022-12-24T17:52:48.742Z,101565.63
2022-12-24T17:55:15.319Z,101567.84
2022-12-24T17:57:41.877Z,101563.41
2022-12-24T18:00:08.966Z,101560.97
2022-12-24T18:02:35.786Z,101567.41
2022-12-24T18:05:02.554Z,101567.56
2022-12-24T18:07:29.081Z,101575.81
2022-12-24T18:09:55.731Z,101578.81
2022-12-24T18:12:22.223Z,101583.81
2022-12-24T18:14:48.752Z,101584.41
2022-12-24T18:17:15.210Z,101585.63
2022-12-24T18:19:41.686Z,101578.13
2022-12-24T18:22:08.157Z,101580.91
2022-12-24T18:24:34.695Z,101583.41
2022-12-24T18:27:02.777Z,101579.56
2022-12-24T18:29:29.288Z,101572.91
2022-12-24T18:31:55.796Z,101587.19
2022-12-24T18:34:22.346Z,101584.78
2022-12-24T18:36:54.868Z,101589.13
2022-12-24T18:39:22.044Z,101583.66
2022-12-24T18:41:49.571Z,101590.06
2022-12-24T18:44:22.510Z,101593.88
2022-12-24T18:46:51.321Z,101589.84
2022-12-24T18:49:17.821Z,101591.00
2022-12-24T18:51:44.326Z,101598.63
2022-12-24T18:54:10.775Z,101595.81
2022-12-24T18:56:37.393Z,101596.25
2022-12-24T18:59:04.007Z,101597.25
2022-12-24T19:01:35.629Z,101595.00
2022-12-24T19:04:02.689Z,101591.75
2022-12-24T19:06:29.472Z,101593.38
2022-12-24T19:08:59.012Z,101589.97
2022-12-24T19:11:28.075Z,101590.78
2022-12-24T19:13:54.618Z,101577.88
2022-12-24T19:16:21.947Z,101577.47
2022-12-24T19:18:48.623Z,101581.09
2022-12-24T19:21:17.419Z,101579.47
2022-12-24T19:23:45.519Z,101576.03
2022-12-24T19:26:13.223Z,101579.88
2022-12-24T19:28:40.104Z,101576.25
2022-12-24T19:31:09.705Z,101577.50
2022-12-24T19:33:48.518Z,101592.81
2022-12-24T19:36:21.147Z,101586.16
2022-12-24T19:38:47.981Z,101581.56
2022-12-24T19:41:17.356Z,101589.22
2022-12-24T19:43:49.219Z,101581.00
2022-12-24T19:46:18.227Z,101584.41
2022-12-24T19:48:50.231Z,101592.06
2022-12-24T19:51:17.861Z,101589.69
2022-12-24T19:53:44.661Z,101598.16
2022-12-24T19:56:15.925Z,101598.16
2022-12-24T19:58:42.516Z,101597.38
2022-12-24T20:01:15.535Z,101595.81
2022-12-24T20:03:43.293Z,101597.84
2022-12-24T20:06:10.206Z,101603.72
2022-12-24T20:08:38.080Z,101603.09
2022-12-24T20:11:10.192Z,101606.34
2022-12-24T20:13:38.550Z,101604.34
2022-12-24T20:16:07.911Z,101606.59
2022-12-24T20:18:36.091Z,101601.41
2022-12-24T20:21:04.775Z,101605.69
2022-12-24T20:23:31.366Z,101606.94
2022-12-24T20:26:02.939Z,101605.63
2022-12-24T20:28:32.260Z,101600.22
2022-12-24T20:30:58.983Z,101615.97
2022-12-24T20:33:25.968Z,101608.94
2022-12-24T20:35:52.651Z,101609.97
2022-12-24T20:38:19.204Z,101601.53
2022-12-24T20:40:46.898Z,101597.53
2022-12-24T20:43:13.539Z,101606.00
2022-12-24T20:45:41.049Z,101603.19
2022-12-24T20:48:07.773Z,101609.22
2022-12-24T20:50:34.396Z,101597.13
2022-12-24T20:53:00.904Z,101585.03
2022-12-24T20:55:27.574Z,101581.81
2022-12-24T20:57:54.314Z,101572.72
2022-12-24T21:00:21.408Z,101574.13
2022-12-24T21:02:48.106Z,101582.59
2022-12-24T21:05:15.361Z,101582.19
2022-12-24T21:07:43.524Z,101577.38
2022-12-24T21:10:12.300Z,101578.56
2022-12-24T21:12:58.797Z,101574.16
2022-12-24T21:15:28.447Z,101587.06
2022-12-24T21:17:56.066Z,101582.81
2022-12-24T21:20:24.981Z,101577.56
2022-12-24T21:22:55.865Z,101575.97
2022-12-24T21:25:25.939Z,101575.34
2022-12-24T21:27:55.444Z,101567.25
2022-12-24T21:30:22.888Z,101559.78
2022-12-24T21:32:49.738Z,101559.97
2022-12-24T21:35:16.730Z,101562.19
2022-12-24T21:37:43.648Z,101567.22
2022-12-24T21:40:11.595Z,101562.78
2022-12-24T21:42:39.023Z,101559.75
2022-12-24T21:45:06.305Z,101559.94
2022-12-24T21:47:34.700Z,101557.91
2022-12-24T21:50:19.856Z,101562.34
2022-12-24T21:52:46.432Z,101560.28
2022-12-24T21:55:12.899Z,101561.06
2022-12-24T21:57:54.624Z,101552.38
2022-12-24T22:00:26.713Z,101559.81
2022-12-24T22:02:56.230Z,101548.13
2022-12-24T22:05:24.874Z,101552.13
2022-12-24T22:08:11.027Z,101549.69
2022-12-24T22:10:57.068Z,101560.34
2022-12-24T22:13:24.302Z,101562.53
2022-12-24T22:15:52.850Z,101564.34
2022-12-24T22:18:24.160Z,101556.50
2022-12-24T22:20:51.626Z,101560.91
2022-12-24T22:23:19.277Z,101547.59
2022-12-24T22:25:46.308Z,101533.91
2022-12-24T22:28:12.819Z,101541.13
2022-12-24T22:30:41.778Z,101540.69
2022-12-24T22:33:09.344Z,101543.91
2022-12-24T22:35:40.414Z,101540.25
2022-12-24T22:38:08.977Z,101550.47
2022-12-24T22:40:35.593Z,101556.06
2022-12-24T22:43:02.149Z,101555.09
2022-12-24T22:45:28.633Z,101554.28
2022-12-24T22:47:55.505Z,101559.88
2022-12-24T22:50:22.525Z,101567.91
2022-12-24T22:52:48.984Z,101552.59
2022-12-24T22:55:15.605Z,101567.28
2022-12-24T22:57:42.102Z,101575.13
2022-12-24T23:00:15.681Z,101573.72
2022-12-24T23:02:42.515Z,101580.38
2022-12-24T23:05:14.234Z,101581.25
2022-12-24T23:07:40.872Z,101591.31
2022-12-24T23:10:08.109Z,101592.56
2022-12-24T23:12:53.177Z,101587.75
2022-12-24T23:15:19.668Z,101584.16
2022-12-24T23:17:48.720Z,101586.78
2022-12-24T23:20:15.714Z,101595.81
2022-12-24T23:22:42.320Z,101587.34
2022-12-24T23:25:09.278Z,101589.94
2022-12-24T23:27:36.433Z,101586.09
2022-12-24T23:30:03.412Z,101588.53
2022-12-24T23:32:29.937Z,101576.88
2022-12-24T23:34:56.399Z,101583.34
2022-12-24T23:37:22.949Z,101597.88
2022-12-24T23:39:49.507Z,101603.16
2022-12-24T23:42:16.028Z,101596.97
2022-12-24T23:44:42.637Z,101595.22
2022-12-24T23:47:09.105Z,101588.22
2022-12-24T23:49:35.668Z,101583.00
2022-12-24T23:52:02.251Z,101573.81
2022-12-24T23:54:28.956Z,101560.94
2022-12-24T23:56:55.556Z,101546.47
2022-12-24T23:59:22.098Z,101551.34
